Flight Track Log - Related Links

Times and Time Zones

All times are in EDT time to prevent confusion due to time zone crossing. See the ASH3732 flight status page for this flight to view local times or setup timezone preferences in your user account.

Time Position Orientation Groundspeed Altitude Reporting Facility
EDT Latitude Longitude Course Direction KTS MPH feet Rate Location/Type
Mon 08:38:38 AM 38.9000 -77.4500 229° Southwest 160 184 2,100  Level Potomac TRACON
Mon 08:39:32 AM 38.8667 -77.5000 229° Southwest 248 285 3,000 2,050 Climbing Potomac TRACON
Mon 08:41:57 AM 38.8222 -77.6886 253° West 252 290 8,900 2,371 Climbing Washington Center
Mon 08:42:57 AM 38.8578 -77.7936 294° West 279 321 11,100 1,721 Climbing Washington Center
Mon 08:43:59 AM 38.8556 -77.9136 269° West 312 359 12,400 1,475 Climbing Washington Center
Mon 08:44:59 AM 38.8553 -78.0389 270° West 336 387 14,100 1,780 Climbing Washington Center
Mon 08:45:57 AM 38.8544 -78.1719 270° West 359 413 15,900 1,613 Climbing Washington Center
Mon 08:46:58 AM 38.8536 -78.3081 270° West 379 436 17,300 1,328 Climbing Washington Center
Mon 08:47:59 AM 38.8525 -78.4467 269° West 390 449 18,600 1,339 Climbing Washington Center
Mon 08:48:59 AM 38.8511 -78.5906 269° West 395 455 20,000 1,374 Climbing Washington Center
Mon 08:50:58 AM 38.8475 -78.8861 269° West 416 479 22,700 1,267 Climbing Washington Center
Mon 08:51:59 AM 38.8431 -79.0406 268° West 422 486 23,800 1,091 Climbing Washington Center
Mon 08:52:59 AM 38.8428 -79.1953 270° West 428 493 24,900 1,179 Climbing Washington Center
Mon 08:53:56 AM 38.8381 -79.3522 268° West 441 507 26,100 1,109 Climbing Washington Center
Mon 08:54:58 AM 38.8372 -79.5094 270° West 441 507 27,100 885 Climbing Washington Center
Mon 08:55:58 AM 38.8342 -79.6639 269° West 459 528 27,900 843 Climbing Washington Center
Mon 08:56:59 AM 38.8303 -79.8314 268° West 466 536 28,800 842 Climbing Washington Center
Mon 08:57:52 AM 38.8242 -79.9664 267° West 472 543 29,500 835 Climbing Indianapolis Center
Mon 08:58:54 AM 38.8189 -80.1728 268° West 482 555 30,400 677 Climbing Indianapolis Center
Mon 08:59:56 AM 38.8128 -80.3472 267° West 490 564 30,900 1,024 Climbing Indianapolis Center
Mon 09:00:57 AM 38.8094 -80.5206 269° West 489 563 32,500 1,561 Climbing Indianapolis Center
Mon 09:01:59 AM 38.8047 -80.6819 268° West 457 526 34,100 1,210 Climbing Indianapolis Center
Mon 09:03:01 AM 38.8000 -80.8444 268° West 455 524 35,000 774 Climbing Indianapolis Center
Mon 09:04:03 AM 38.7944 -81.0061 268° West 456 525 35,700 677 Climbing Indianapolis Center
Mon 09:05:05 AM 38.7894 -81.1672 268° West 454 522 36,400 732 Climbing Indianapolis Center
Mon 09:06:06 AM 38.7833 -81.3600 268° West 454 522 37,200 732 Climbing Indianapolis Center
Mon 09:07:08 AM 38.7761 -81.5311 267° West 453 521 37,900 387 Climbing Indianapolis Center
Mon 09:08:10 AM 38.7697 -81.6917 267° West 451 519 38,000 48 Climbing Indianapolis Center
Mon 09:09:12 AM 38.7642 -81.8361 267° West 463 533 38,000  Level Indianapolis Center
Mon 09:10:14 AM 38.7583 -82.0364 268° West 472 543 38,000  Level Indianapolis Center
Mon 09:11:16 AM 38.7794 -82.2017 279° West 472 543 38,000  Level Indianapolis Center
Mon 09:12:18 AM 38.7989 -82.3653 279° West 467 537 38,000  Level Indianapolis Center
Mon 09:13:19 AM 38.8206 -82.5281 280° West 463 533 38,000  Level Indianapolis Center
Mon 09:14:21 AM 38.8406 -82.6908 279° West 463 533 38,000  Level Indianapolis Center
Mon 09:15:23 AM 38.8603 -82.8522 279° West 460 529 38,000  Level Indianapolis Center
Mon 09:16:25 AM 38.8792 -83.0125 279° West 455 524 38,000  Level Indianapolis Center
Mon 09:17:27 AM 38.9003 -83.1847 279° West 457 526 38,000  Level Indianapolis Center
Mon 09:18:29 AM 38.9236 -83.3747 279° West 456 525 38,000  Level Indianapolis Center
Mon 09:19:31 AM 38.9425 -83.5378 279° West 457 526 38,000  Level Indianapolis Center
Mon 09:20:33 AM 38.9619 -83.7011 279° West 457 526 38,000  Level Indianapolis Center
Mon 09:21:35 AM 38.9806 -83.8636 278° West 455 524 38,000  Level Indianapolis Center
Mon 09:22:37 AM 38.9994 -84.0286 278° West 459 528 38,000  Level Indianapolis Center
Mon 09:23:39 AM 39.0181 -84.1911 278° West 455 524 38,000  Level Indianapolis Center
Mon 09:24:41 AM 39.0369 -84.3553 278° West 457 526 38,000  Level Indianapolis Center
Mon 09:25:43 AM 39.0553 -84.5194 278° West 459 528 38,000  Level Indianapolis Center
Mon 09:26:45 AM 39.0731 -84.6828 278° West 457 526 38,000  Level Indianapolis Center
Mon 09:27:47 AM 39.0947 -84.8750 278° West 460 529 38,000  Level Indianapolis Center
Mon 09:28:49 AM 39.1111 -85.0375 277° West 456 525 38,000  Level Indianapolis Center
Mon 09:29:51 AM 39.1283 -85.2006 278° West 459 528 38,000  Level Indianapolis Center
Mon 09:30:53 AM 39.1456 -85.3658 278° West 462 532 38,000  Level Indianapolis Center
Mon 09:31:55 AM 39.1622 -85.5267 278° West 459 528 38,000  Level Indianapolis Center
Mon 09:32:57 AM 39.1786 -85.6900 277° West 459 528 38,000  Level Indianapolis Center
Mon 09:33:59 AM 39.1942 -85.8533 277° West 458 527 38,000  Level Indianapolis Center
Mon 09:35:01 AM 39.2136 -86.0497 277° West 460 529 38,000  Level Indianapolis Center
Mon 09:36:03 AM 39.2289 -86.2144 277° West 461 531 38,000  Level Indianapolis Center
Mon 09:37:05 AM 39.2442 -86.3789 277° West 460 529 38,000  Level Indianapolis Center
Mon 09:38:07 AM 39.2597 -86.5439 277° West 461 531 38,000  Level Indianapolis Center
Mon 09:39:09 AM 39.2753 -86.7072 277° West 459 528 38,000  Level Indianapolis Center
Mon 09:40:11 AM 39.2908 -86.8728 277° West 462 532 38,000  Level Indianapolis Center
Mon 09:41:13 AM 39.3050 -87.0367 276° West 461 531 38,000  Level Indianapolis Center
Mon 09:42:16 AM 39.3228 -87.2339 277° West 460 529 38,000  Level Indianapolis Center
Mon 09:43:18 AM 39.3358 -87.3969 276° West 457 526 38,000  Level Indianapolis Center
Mon 09:44:20 AM 39.3497 -87.5633 276° West 464 534 38,000  Level Indianapolis Center
Mon 09:45:22 AM 39.3636 -87.7247 276° West 462 532 38,000  Level Indianapolis Center
Mon 09:46:24 AM 39.3764 -87.8931 276° West 465 535 38,000  Level Indianapolis Center
Mon 09:47:26 AM 39.3900 -88.0586 276° West 464 534 38,000  Level Indianapolis Center
Mon 09:48:24 AM 39.4044 -88.2231 277° West 463 533 38,000  Level Kansas City Center
Mon 09:49:24 AM 39.4169 -88.3903 276° West 465 535 38,000  Level Kansas City Center
Mon 09:50:26 AM 39.4297 -88.5572 276° West 466 536 38,000  Level Kansas City Center
Mon 09:51:29 AM 39.4411 -88.7367 275° West 473 544 38,000  Level Kansas City Center
Mon 09:52:29 AM 39.4533 -88.9022 276° West 466 536 38,000  Level Kansas City Center
Mon 09:53:33 AM 39.4647 -89.0689 275° West 466 536 38,000  Level Kansas City Center
Mon 09:54:34 AM 39.4786 -89.2700 275° West 466 536 38,000  Level Kansas City Center
Mon 09:55:37 AM 39.4906 -89.4417 275° West 466 536 38,000  Level Kansas City Center
Mon 09:56:38 AM 39.5019 -89.6067 275° West 464 534 38,000  Level Kansas City Center
Mon 09:57:41 AM 39.5117 -89.7736 274° West 467 537 38,000  Level Kansas City Center
Mon 09:58:42 AM 39.5244 -89.9444 276° West 471 542 38,000  Level Kansas City Center
Mon 09:59:46 AM 39.5347 -90.1181 274° West 478 550 38,000  Level Kansas City Center
Mon 10:00:46 AM 39.5467 -90.3306 274° West 490 564 38,000  Level Kansas City Center
Mon 10:01:48 AM 39.5581 -90.5097 275° West 498 573 38,000  Level Kansas City Center
Mon 10:02:51 AM 39.5669 -90.6867 274° West 498 573 38,000  Level Kansas City Center
Mon 10:03:52 AM 39.5769 -90.8650 274° West 498 573 38,000  Level Kansas City Center
Mon 10:04:56 AM 39.5875 -91.0417 274° West 496 571 38,000  Level Kansas City Center
Mon 10:05:57 AM 39.5986 -91.2561 274° West 499 574 38,000  Level Kansas City Center
Mon 10:06:58 AM 39.6069 -91.4236 274° West 501 577 38,000  Level Kansas City Center
Mon 10:08:02 AM 39.6153 -91.6017 274° West 499 574 38,000  Level Kansas City Center
Mon 10:09:03 AM 39.6231 -91.7803 273° West 499 574 38,000  Level Kansas City Center
Mon 10:10:06 AM 39.6328 -91.9933 273° West 497 572 38,000  Level Kansas City Center
Mon 10:11:08 AM 39.6406 -92.1669 273° West 489 563 38,000 -197 Level Kansas City Center
Mon 10:12:08 AM 39.6481 -92.3356 273° West 479 551 37,600 -968 Descending Kansas City Center
Mon 10:13:12 AM 39.6542 -92.5061 273° West 475 547 36,000 -1,742 Descending Kansas City Center
Mon 10:14:12 AM 39.6511 -92.6842 269° West 487 560 34,000 -2,129 Descending Kansas City Center
Mon 10:15:16 AM 39.6489 -92.8994 269° West 496 571 31,600 -2,371 Descending Kansas City Center
Mon 10:16:16 AM 39.6458 -93.0700 269° West 485 558 29,100 -2,565 Descending Kansas City Center
Mon 10:17:20 AM 39.6431 -93.2372 269° West 471 542 26,300 -2,400 Descending Kansas City Center
Mon 10:18:21 AM 39.6392 -93.3844 268° West 421 484 24,100 -2,323 Descending Kansas City Center
Mon 10:19:24 AM 39.6375 -93.5322 269° West 408 470 21,500 -2,274 Descending Kansas City Center
Mon 10:20:25 AM 39.6342 -93.6675 268° West 392 451 19,400 -1,902 Descending Kansas City Center
Mon 10:21:27 AM 39.6314 -93.8236 269° West 362 417 17,600 -1,805 Descending Kansas City Center
Mon 10:22:28 AM 39.6008 -93.9308 250° West 333 383 15,700 -2,016 Descending Kansas City Center
Mon 10:23:32 AM 39.5469 -94.0392 237° Southwest 320 368 13,400 -2,000 Descending Kansas City Center
Mon 10:24:34 AM 39.5019 -94.1264 236° Southwest 304 350 11,500 -1,854 Descending Kansas City Center
Mon 10:25:35 AM 39.4822 -94.2250 256° West 303 349 9,600 -2,231 Descending Kansas City Center
Mon 10:26:35 AM 39.4678 -94.3411 261° West 293 337 7,000 -1,728 Descending Kansas City Center
Mon 10:27:40 AM 39.4542 -94.4369 260° West 285 328 6,000 -624 Descending Kansas City Center
Mon 10:28:40 AM 39.4378 -94.5464 259° West 278 320 5,700 -677 Descending Kansas City Center
Mon 10:29:44 AM 39.4233 -94.6347 258° West 264 304 4,600 -1,536 Descending Kansas City Center
Mon 10:30:45 AM 39.3722 -94.6836 216° Southwest 210 242 2,500 -1,525 Descending Kansas City Center
Mon 10:31:46 AM 39.3297 -94.6939 191° South 160 184 1,500 -672 Descending Kansas City Center
Mon 10:32:50 AM 39.2908 -94.7072 195° South 128 147 1,100 -375 Descending Kansas City Center
Mon 10:34:00 AM 39.2833 -94.7000 270° West  Level FlightAware Approximate

Login

Don't have an account? Register now (free) for customized features, flight alerts, and more!